Algoma, WV

12:51 PM EDT on April 25, 2015 (GMT -0400)
RAWS | | Change Station
CLOSE
Current Station
Personal Weather Station
Location: Welch, WV
Elevation: 2100 ft
Nearby Weather Stations

Elev 2100 ft 37.40 °N, 81.54 °W | Updated 34 minutes ago

Rain
Rain
44 °F
Feels Like 41 °F
N
6
Wind Variable Wind from ESE
Gusts 11.0 mph

Today
High -- | Low -- °F
--% Chance of Precip.
Yesterday
High -- | Low -- °F
Precip. -- in
6:38 AM 8:09 PM
Waxing Crescent, 47% visible
Pressure 29.80 in
Visibility 10.0 miles
Clouds Overcast 2700 ft
Windchill 41 °F
Dew Point 41 °F
Humidity 90%
Rainfall in
Snow Depth Not available.
UV 3 out of 12
Pollen 10.50 out of 12
Air Quality Not available.
Flu Activity Sporadic
METAR KBLF 251552Z AUTO 10009G16KT 10SM OVC027 06/02 A2982 RMK AO2 RAB04E31 SLP090 P0001 T00610017

More Conditions Fewer Conditions

Pressure 29.80 in
Visibility 10.0 miles
Clouds Overcast 2700 ft
Windchill 41 °F
Dew Point 41 °F
Humidity 90%
Rainfall in
Snow Depth Not available.
UV 3 out of 12
Pollen 10.50 out of 12
Air Quality Not available.
Flu Activity Sporadic
METAR KBLF 251552Z AUTO 10009G16KT 10SM OVC027 06/02 A2982 RMK AO2 RAB04E31 SLP090 P0001 T00610017

More Conditions Fewer Conditions

10-Day Weather Forecast

Almanac

Astronomy

Apr. 25, 2015 Rise Set
Actual Time
Civil Twilight
Nautical Twilight
Astronomical Twilight
Moon
Length of Visible Light
Length of Day
Tomorrow will be .
, % of the Moon is Illuminated

Today's Extremes

State Highs State Lows

Community

WunderPhotos

Upload Photos

1,816,737 photos uploaded!

WunderBlogs® & News

Nearby

Air Quality

  Air Quality AQ Index Pollutant
Not available.

Snow Depth

Station Depth Elevation

Earthquake Activity

City Distance Mag. Time & Date
Minimum magnitude displayed is 2.5.

Coastal Water Temperatures

Place Temperature

Stations

Nearby Weather Stations

Station Location Temp. Windchill Dew Point Humidity Wind Precip. Elev Updated Type